createdAt,value
2019-01-31T00:01:26.975Z,96136.45
2019-01-31T00:05:30.423Z,96138.43
2019-01-31T00:09:33.881Z,96139.41
2019-01-31T00:13:37.338Z,96138.74
2019-01-31T00:17:40.777Z,96138.09
2019-01-31T00:21:44.231Z,96143.41
2019-01-31T00:25:47.761Z,96145.27
2019-01-31T00:29:51.133Z,96148.01
2019-01-31T00:33:54.575Z,96140.96
2019-01-31T00:37:58.028Z,96141.06
2019-01-31T00:42:01.481Z,96145.48
2019-01-31T00:46:04.940Z,96143.89
2019-01-31T00:50:08.402Z,96141.41
2019-01-31T00:54:11.955Z,96145.34
2019-01-31T00:58:15.552Z,96137.81
2019-01-31T01:02:19.016Z,96129.44
2019-01-31T01:06:22.472Z,96122.23
2019-01-31T01:10:25.929Z,96132.20
2019-01-31T01:14:29.378Z,96134.30
2019-01-31T01:18:32.846Z,96139.36
2019-01-31T01:22:36.291Z,96140.20
2019-01-31T01:26:39.753Z,96141.72
2019-01-31T01:30:43.212Z,96136.90
2019-01-31T01:34:46.673Z,96147.31
2019-01-31T01:38:50.135Z,96144.40
2019-01-31T01:42:53.590Z,96144.94
2019-01-31T01:46:57.048Z,96140.62
2019-01-31T01:51:00.512Z,96144.05
2019-01-31T01:55:03.961Z,96142.18
2019-01-31T01:59:07.422Z,96143.70
2019-01-31T02:03:10.888Z,96135.64
2019-01-31T02:07:14.342Z,96127.21
2019-01-31T02:11:17.797Z,96127.34
2019-01-31T02:15:21.240Z,96122.27
2019-01-31T02:19:24.702Z,96131.22
2019-01-31T02:23:28.168Z,96124.41
2019-01-31T02:27:31.632Z,96130.37
2019-01-31T02:31:35.106Z,96132.20
2019-01-31T02:35:38.614Z,96127.20
2019-01-31T02:39:43.383Z,96132.42
2019-01-31T02:43:47.053Z,96130.02
2019-01-31T02:47:50.507Z,96130.86
2019-01-31T02:51:53.968Z,96128.58
2019-01-31T02:55:57.420Z,96112.20
2019-01-31T03:00:00.875Z,96106.71
2019-01-31T03:04:04.341Z,96110.62
2019-01-31T03:08:07.799Z,96114.45
2019-01-31T03:12:11.269Z,96097.37
2019-01-31T03:16:14.717Z,96092.86
2019-01-31T03:20:18.179Z,96097.27
2019-01-31T03:24:21.636Z,96085.48
2019-01-31T03:28:26.169Z,96088.47
2019-01-31T03:32:29.638Z,96091.24
2019-01-31T03:36:33.063Z,96087.00
2019-01-31T03:40:36.524Z,96075.84
2019-01-31T03:44:39.993Z,96075.66
2019-01-31T03:48:43.437Z,96066.80
2019-01-31T03:52:46.888Z,96078.36
2019-01-31T03:56:50.343Z,96075.08
2019-01-31T04:00:53.802Z,96075.63
2019-01-31T04:04:57.260Z,96081.92
2019-01-31T04:09:00.720Z,96073.91
2019-01-31T04:13:04.241Z,96069.75
2019-01-31T04:17:07.697Z,96067.55
2019-01-31T04:21:11.155Z,96066.95
2019-01-31T04:25:14.612Z,96064.97
2019-01-31T04:29:18.066Z,96060.91
2019-01-31T04:33:21.526Z,96053.23
2019-01-31T04:37:24.990Z,96050.02
2019-01-31T04:41:28.443Z,96042.83
2019-01-31T04:45:31.901Z,96037.16
2019-01-31T04:49:35.352Z,96040.83
2019-01-31T04:53:38.810Z,96037.25
2019-01-31T04:57:42.264Z,96038.58
2019-01-31T05:01:46.686Z,96032.25
2019-01-31T05:05:50.144Z,96021.98
2019-01-31T05:09:53.587Z,96017.80
2019-01-31T05:13:57.061Z,96009.27
2019-01-31T05:18:00.502Z,96009.05
2019-01-31T05:22:03.947Z,96006.95
2019-01-31T05:26:07.410Z,96014.57
2019-01-31T05:30:10.847Z,96007.26
2019-01-31T05:34:14.296Z,96018.33
2019-01-31T05:38:17.751Z,96024.36
2019-01-31T05:42:21.207Z,96024.88
2019-01-31T05:46:24.652Z,96023.96
2019-01-31T05:50:28.107Z,96023.88
2019-01-31T05:54:31.555Z,96021.80
2019-01-31T05:58:35.007Z,96025.72
2019-01-31T06:02:38.461Z,96029.95
2019-01-31T06:06:41.900Z,96031.16
2019-01-31T06:10:45.361Z,96036.54
2019-01-31T06:14:48.813Z,96039.95
2019-01-31T06:18:52.273Z,96042.50
2019-01-31T06:22:55.722Z,96041.06
2019-01-31T06:26:59.166Z,96043.38
2019-01-31T06:31:02.616Z,96028.91
2019-01-31T06:35:06.080Z,96024.38
2019-01-31T06:39:09.534Z,96027.25
2019-01-31T06:43:12.986Z,96034.17
2019-01-31T06:47:16.425Z,96040.13
2019-01-31T06:51:19.884Z,96035.94
2019-01-31T06:55:23.349Z,96038.63
2019-01-31T06:59:26.858Z,96037.64
2019-01-31T07:03:30.304Z,96043.17
2019-01-31T07:07:33.754Z,96043.84
2019-01-31T07:11:37.209Z,96038.31
2019-01-31T07:15:40.669Z,96041.09
2019-01-31T07:19:44.120Z,96045.81
2019-01-31T07:23:47.574Z,96055.16
2019-01-31T07:27:51.032Z,96058.58
2019-01-31T07:31:54.487Z,96065.94
2019-01-31T07:35:57.952Z,96068.91
2019-01-31T07:40:01.405Z,96069.55
2019-01-31T07:44:04.851Z,96075.39
2019-01-31T07:48:08.302Z,96081.28
2019-01-31T07:52:11.766Z,96088.41
2019-01-31T07:56:15.226Z,96083.57
2019-01-31T08:00:18.683Z,96096.94
2019-01-31T08:04:22.128Z,96098.34
2019-01-31T08:08:25.582Z,96084.30
2019-01-31T08:12:29.046Z,96092.20
2019-01-31T08:16:32.498Z,96088.63
2019-01-31T08:20:35.957Z,96091.77
2019-01-31T08:24:39.402Z,96089.09
2019-01-31T08:28:42.871Z,96091.68
2019-01-31T08:32:46.317Z,96094.19
2019-01-31T08:36:49.774Z,96089.47
2019-01-31T08:40:53.230Z,96088.02
2019-01-31T08:44:56.676Z,96086.33
2019-01-31T08:49:00.137Z,96090.92
2019-01-31T08:53:03.586Z,96091.12
2019-01-31T08:57:07.045Z,96088.66
2019-01-31T09:01:10.491Z,96101.48
2019-01-31T09:05:13.951Z,96090.67
2019-01-31T09:09:17.406Z,96095.62
2019-01-31T09:13:20.859Z,96097.51
2019-01-31T09:17:24.313Z,96093.59
2019-01-31T09:21:27.751Z,96096.58
2019-01-31T09:25:31.207Z,96096.33
2019-01-31T09:29:34.661Z,96089.22
2019-01-31T09:33:38.121Z,96085.75
2019-01-31T09:37:41.568Z,96093.36
2019-01-31T09:41:45.029Z,96094.31
2019-01-31T09:45:48.490Z,96091.44
2019-01-31T09:49:52.016Z,96096.42
2019-01-31T09:53:55.482Z,96095.67
2019-01-31T09:57:58.947Z,96102.45
2019-01-31T10:02:02.398Z,96102.13
2019-01-31T10:06:05.847Z,96095.24
2019-01-31T10:10:09.325Z,96091.76
2019-01-31T10:14:12.812Z,96095.17
2019-01-31T10:18:16.194Z,96092.06
2019-01-31T10:22:19.686Z,96093.45
2019-01-31T10:26:23.109Z,96089.47
2019-01-31T10:30:26.583Z,96092.13
2019-01-31T10:34:30.021Z,96093.84
2019-01-31T10:38:33.558Z,96093.11
2019-01-31T10:42:36.989Z,96089.57
2019-01-31T10:46:40.437Z,96086.42
2019-01-31T10:50:43.890Z,96082.69
2019-01-31T10:54:47.342Z,96079.42
2019-01-31T10:58:50.778Z,96078.02
2019-01-31T11:02:54.239Z,96076.25
2019-01-31T11:06:57.686Z,96073.94
2019-01-31T11:11:01.149Z,96070.19
2019-01-31T11:15:05.565Z,96062.96
2019-01-31T11:19:12.590Z,96071.73
2019-01-31T11:23:14.174Z,96069.09
2019-01-31T11:27:17.624Z,96071.92
2019-01-31T11:31:21.085Z,96060.82
2019-01-31T11:35:24.545Z,96062.66
2019-01-31T11:39:27.984Z,96054.15
2019-01-31T11:43:31.429Z,96062.70
2019-01-31T11:47:34.897Z,96050.93
2019-01-31T11:51:38.345Z,96052.77
2019-01-31T11:55:41.802Z,96051.53
2019-01-31T11:59:46.826Z,96051.33
2019-01-31T12:03:50.355Z,96048.83
2019-01-31T12:07:53.811Z,96049.28
2019-01-31T12:11:57.589Z,96043.66
2019-01-31T12:16:01.033Z,96046.05
2019-01-31T12:20:04.486Z,96039.71
2019-01-31T12:24:16.117Z,96040.67
2019-01-31T12:28:14.278Z,96037.44
2019-01-31T12:32:17.736Z,96033.50
2019-01-31T12:36:21.185Z,96040.36
2019-01-31T12:40:24.655Z,96033.38
2019-01-31T12:44:28.114Z,96031.57
2019-01-31T12:48:31.575Z,96026.90
2019-01-31T12:52:35.031Z,96027.98
2019-01-31T12:56:38.521Z,96030.39
2019-01-31T13:00:41.941Z,96026.53
2019-01-31T13:04:45.671Z,96027.45
2019-01-31T13:08:49.132Z,96031.91
2019-01-31T13:12:52.590Z,96019.63
2019-01-31T13:16:56.046Z,96020.97
2019-01-31T13:20:59.502Z,96015.97
2019-01-31T13:25:02.961Z,96019.33
2019-01-31T13:29:06.426Z,96015.91
2019-01-31T13:33:09.892Z,96017.50
2019-01-31T13:37:13.342Z,96012.81
2019-01-31T13:41:17.981Z,96016.66
2019-01-31T13:45:21.414Z,96015.23
2019-01-31T13:49:24.873Z,96017.77
2019-01-31T13:53:28.333Z,96014.70
2019-01-31T13:57:31.787Z,96014.95
2019-01-31T14:01:35.249Z,96012.00
2019-01-31T14:05:38.708Z,96018.41
2019-01-31T14:09:42.180Z,96015.58
2019-01-31T14:13:45.636Z,96016.50
2019-01-31T14:17:49.095Z,96019.02
2019-01-31T14:21:52.565Z,96020.77
2019-01-31T14:25:56.042Z,96012.96
2019-01-31T14:29:59.486Z,96015.41
2019-01-31T14:34:02.933Z,96010.44
2019-01-31T14:38:06.398Z,96009.14
2019-01-31T14:42:09.854Z,96003.52
2019-01-31T14:46:13.324Z,96000.64
2019-01-31T14:50:16.770Z,96002.84
2019-01-31T14:54:20.214Z,95999.69
2019-01-31T14:58:23.673Z,96000.59
2019-01-31T15:02:27.143Z,96009.39
2019-01-31T15:06:30.592Z,96003.88
2019-01-31T15:10:34.054Z,96006.66
2019-01-31T15:14:37.992Z,96006.61
2019-01-31T15:18:41.608Z,95999.53
2019-01-31T15:22:44.993Z,96009.08
2019-01-31T15:26:48.450Z,96009.02
2019-01-31T15:30:51.908Z,96008.83
2019-01-31T15:34:55.351Z,96005.09
2019-01-31T15:38:58.818Z,96007.13
2019-01-31T15:43:02.273Z,96007.37
2019-01-31T15:47:05.727Z,96004.16
2019-01-31T15:51:09.255Z,96007.59
2019-01-31T15:55:12.696Z,96003.90
2019-01-31T15:59:16.157Z,95992.66
2019-01-31T16:03:19.622Z,95995.42
2019-01-31T16:07:23.083Z,95992.34
2019-01-31T16:11:26.559Z,95994.73
2019-01-31T16:15:30.036Z,95989.41
2019-01-31T16:19:33.448Z,95988.05
2019-01-31T16:23:36.918Z,95981.15
2019-01-31T16:27:40.377Z,95983.23
2019-01-31T16:31:43.878Z,95973.73
2019-01-31T16:35:48.293Z,95978.96
2019-01-31T16:39:51.756Z,95977.02
2019-01-31T16:43:55.220Z,95979.59
2019-01-31T16:47:58.689Z,95989.03
2019-01-31T16:52:02.142Z,95979.86
2019-01-31T16:56:05.594Z,95982.05
2019-01-31T17:00:09.049Z,95975.22
2019-01-31T17:04:12.509Z,95975.86
2019-01-31T17:08:15.968Z,95957.62
2019-01-31T17:12:19.435Z,95968.80
2019-01-31T17:16:22.895Z,95965.02
2019-01-31T17:20:26.354Z,95959.05
2019-01-31T17:24:29.915Z,95963.84
2019-01-31T17:28:33.385Z,95954.66
2019-01-31T17:32:36.836Z,95950.80
2019-01-31T17:36:40.292Z,95939.16
2019-01-31T17:40:43.754Z,95935.03
2019-01-31T17:44:47.206Z,95941.09
2019-01-31T17:48:50.687Z,95938.87
2019-01-31T17:52:54.139Z,95942.08
2019-01-31T17:56:57.605Z,95933.94
2019-01-31T18:01:01.069Z,95938.95
2019-01-31T18:05:04.530Z,95938.30
2019-01-31T18:09:08.046Z,95937.50
2019-01-31T18:13:11.512Z,95925.41
2019-01-31T18:17:14.981Z,95926.19
2019-01-31T18:21:18.445Z,95921.33
2019-01-31T18:25:21.893Z,95923.11
2019-01-31T18:29:25.332Z,95922.10
2019-01-31T18:33:28.780Z,95920.73
2019-01-31T18:37:32.226Z,95916.43
2019-01-31T18:41:35.690Z,95910.55
2019-01-31T18:45:39.145Z,95891.72
2019-01-31T18:49:42.596Z,95875.16
2019-01-31T18:53:46.057Z,95861.45
2019-01-31T18:57:49.528Z,95853.34
2019-01-31T19:01:52.983Z,95849.91
2019-01-31T19:05:56.452Z,95853.19
2019-01-31T19:09:59.904Z,95860.02
2019-01-31T19:14:03.380Z,95866.22
2019-01-31T19:18:07.808Z,95873.75
2019-01-31T19:22:11.279Z,95875.25
2019-01-31T19:26:14.794Z,95862.58
2019-01-31T19:30:18.248Z,95862.32
2019-01-31T19:34:21.765Z,95862.61
2019-01-31T19:38:25.222Z,95858.95
2019-01-31T19:42:28.689Z,95855.89
2019-01-31T19:46:32.396Z,95859.02
2019-01-31T19:50:36.813Z,95847.34
2019-01-31T19:54:41.046Z,95846.75
2019-01-31T19:58:44.505Z,95848.55
2019-01-31T20:02:47.960Z,95837.28
2019-01-31T20:06:51.422Z,95835.77
2019-01-31T20:10:54.886Z,95827.77
2019-01-31T20:14:58.385Z,95804.23
2019-01-31T20:19:01.853Z,95788.95
2019-01-31T20:23:05.318Z,95788.99
2019-01-31T20:27:08.770Z,95779.05
2019-01-31T20:31:12.232Z,95787.60
2019-01-31T20:35:15.692Z,95774.09
2019-01-31T20:39:19.156Z,95763.23
2019-01-31T20:43:23.419Z,95756.59
2019-01-31T20:47:26.962Z,95751.23
2019-01-31T20:51:32.143Z,95753.84
2019-01-31T20:55:35.744Z,95753.20
2019-01-31T20:59:39.198Z,95745.92
2019-01-31T21:03:42.650Z,95742.45
2019-01-31T21:07:46.094Z,95738.08
2019-01-31T21:11:49.552Z,95722.17
2019-01-31T21:15:53.261Z,95721.17
2019-01-31T21:19:57.834Z,95705.91
2019-01-31T21:24:01.367Z,95706.50
2019-01-31T21:28:04.818Z,95708.00
2019-01-31T21:32:08.284Z,95705.94
2019-01-31T21:36:11.747Z,95696.58
2019-01-31T21:40:15.212Z,95691.84
2019-01-31T21:44:18.668Z,95699.95
2019-01-31T21:48:23.196Z,95692.35
2019-01-31T21:52:26.659Z,95696.81
2019-01-31T21:56:30.115Z,95683.02
2019-01-31T22:00:33.565Z,95666.70
2019-01-31T22:04:37.002Z,95661.91
2019-01-31T22:08:40.458Z,95650.14
2019-01-31T22:12:43.911Z,95649.17
2019-01-31T22:16:47.358Z,95643.86
2019-01-31T22:20:51.881Z,95641.69
2019-01-31T22:24:55.319Z,95636.77
2019-01-31T22:28:58.771Z,95623.16
2019-01-31T22:33:02.220Z,95614.50
2019-01-31T22:37:05.667Z,95617.39
2019-01-31T22:41:09.111Z,95612.34
2019-01-31T22:45:12.560Z,95609.36
2019-01-31T22:49:16.010Z,95613.27
2019-01-31T22:53:19.460Z,95607.75
2019-01-31T22:57:22.912Z,95597.14
2019-01-31T23:01:30.626Z,95590.46
2019-01-31T23:05:34.082Z,95586.02
2019-01-31T23:09:38.614Z,95596.58
2019-01-31T23:13:42.058Z,95602.39
2019-01-31T23:17:45.507Z,95609.22
2019-01-31T23:21:48.951Z,95593.91
2019-01-31T23:25:52.413Z,95601.73
2019-01-31T23:29:55.861Z,95612.25
2019-01-31T23:33:59.317Z,95606.41
2019-01-31T23:38:02.774Z,95604.98
2019-01-31T23:42:06.221Z,95596.72
2019-01-31T23:46:09.673Z,95593.34
2019-01-31T23:50:13.118Z,95583.48
2019-01-31T23:54:16.581Z,95566.84
2019-01-31T23:58:20.041Z,95552.89
